Time;durP1;ratioP1;P1;durP2;ratioP2;P2;SDS_P1;SDS_P2;PMS_P1;PMS_P2;Temp;Humidity;BMP_temperature;BMP_pressure;BME280_temperature;BME280_humidity;BME280_pressure;Samples;Min_cycle;Max_cycle;Signal;HPM_P1;HPM_P2
2021/01/19 00:00:13;;;;;;;24.30;9.40;;;;;;;5.10;91.59;101513.31;4931913;29;20110;-74
2021/01/19 00:02:38;;;;;;;20.10;8.70;;;;;;;4.88;91.97;101467.13;4935343;28;20435;-74
2021/01/19 00:05:05;;;;;;;23.83;8.65;;;;;;;4.90;91.38;101473.13;4941335;28;20115;-74
2021/01/19 00:07:30;;;;;;;20.05;7.50;;;;;;;5.05;91.14;101498.56;4926816;29;20046;-74
2021/01/19 00:09:56;;;;;;;23.73;7.75;;;;;;;5.10;90.86;101503.56;4962101;28;20063;-74
2021/01/19 00:12:22;;;;;;;25.42;8.00;;;;;;;4.93;90.45;101472.94;4963137;28;20122;-75
2021/01/19 00:14:47;;;;;;;19.77;7.40;;;;;;;5.05;90.99;101493.28;4963608;28;20487;-75
2021/01/19 00:17:13;;;;;;;19.88;7.35;;;;;;;5.09;90.64;101482.50;4933134;29;20043;-72
2021/01/19 00:19:38;;;;;;;25.15;7.05;;;;;;;5.10;89.62;101478.91;4952375;28;20114;-75
2021/01/19 00:22:04;;;;;;;25.70;7.38;;;;;;;5.07;90.13;101485.25;4925930;29;20123;-73
2021/01/19 00:24:29;;;;;;;19.05;5.90;;;;;;;5.03;89.51;101473.19;4935607;28;20198;-73
2021/01/19 00:26:55;;;;;;;21.13;5.97;;;;;;;5.04;88.81;101470.41;4924550;29;20114;-76
2021/01/19 00:29:21;;;;;;;15.95;5.75;;;;;;;5.08;88.98;101463.16;4940619;29;20082;-73
2021/01/19 00:31:46;;;;;;;17.90;6.32;;;;;;;5.07;89.07;101456.16;4935616;28;20114;-73
2021/01/19 00:34:12;;;;;;;16.17;6.00;;;;;;;5.06;88.47;101446.53;4939480;29;20119;-73
2021/01/19 00:36:37;;;;;;;21.08;6.38;;;;;;;5.08;88.58;101444.63;4953619;28;20197;-73
2021/01/19 00:39:03;;;;;;;16.63;4.93;;;;;;;5.07;88.48;101442.94;4935916;29;20134;-73
2021/01/19 00:41:28;;;;;;;16.73;5.63;;;;;;;4.99;88.30;101432.00;4940323;28;20059;-75
2021/01/19 00:43:54;;;;;;;17.00;5.72;;;;;;;4.89;88.16;101414.09;4948354;28;20258;-73
2021/01/19 00:46:19;;;;;;;13.80;4.97;;;;;;;4.97;88.32;101408.31;4960940;28;20132;-73
2021/01/19 00:48:45;;;;;;;17.88;5.68;;;;;;;4.93;89.13;101396.22;4920737;29;20136;-73
2021/01/19 00:51:10;;;;;;;17.65;5.10;;;;;;;4.99;88.10;101392.31;4959325;28;20110;-73
2021/01/19 00:53:36;;;;;;;21.02;5.05;;;;;;;5.00;88.14;101391.38;4915563;29;20115;-73
2021/01/19 00:56:01;;;;;;;14.65;4.85;;;;;;;4.98;88.20;101388.84;4938857;29;20102;-73
2021/01/19 00:58:27;;;;;;;15.93;4.80;;;;;;;4.92;88.36;101388.41;4927598;29;20070;-74
2021/01/19 01:00:52;;;;;;;22.77;4.97;;;;;;;4.96;88.88;101377.50;4942130;29;20549;-73
2021/01/19 01:03:18;;;;;;;13.60;4.65;;;;;;;4.98;87.44;101364.16;4936962;28;20139;-74
2021/01/19 01:05:43;;;;;;;15.65;4.68;;;;;;;5.01;87.74;101363.97;4937459;29;20130;-73
2021/01/19 01:08:09;;;;;;;19.63;4.43;;;;;;;4.92;87.18;101333.69;4933750;28;20110;-73
2021/01/19 01:10:34;;;;;;;15.40;4.55;;;;;;;5.04;87.58;101356.66;4945431;28;20517;-73
2021/01/19 01:13:00;;;;;;;13.30;4.03;;;;;;;5.01;88.14;101340.16;4931204;29;20059;-74
2021/01/19 01:15:36;;;;;;;15.95;4.40;;;;;;;5.01;88.66;101343.69;4934121;29;20471;-73
2021/01/19 01:18:01;;;;;;;15.02;4.80;;;;;;;4.86;88.96;101316.44;4933373;29;20046;-74
2021/01/19 01:20:27;;;;;;;16.08;4.50;;;;;;;5.04;88.53;101332.03;4930597;29;20039;-73
2021/01/19 01:22:52;;;;;;;18.58;5.25;;;;;;;4.98;89.35;101330.66;4947148;28;20121;-75
2021/01/19 01:25:18;;;;;;;19.50;4.50;;;;;;;4.77;89.67;101290.63;4948557;28;20115;-75
2021/01/19 01:27:44;;;;;;;15.38;5.18;;;;;;;4.86;89.97;101299.75;4949262;28;20513;-74
2021/01/19 01:30:11;;;;;;;17.52;4.97;;;;;;;4.98;90.41;101305.97;4950436;28;20130;-73
2021/01/19 01:32:48;;;;;;;14.90;4.57;;;;;;;4.95;90.59;101308.84;4939266;29;20635;-74
2021/01/19 01:35:14;;;;;;;16.27;4.93;;;;;;;4.92;91.01;101303.78;4930739;28;20123;-73
2021/01/19 01:37:46;;;;;;;18.73;5.05;;;;;;;4.52;92.04;101249.16;4944488;29;20118;-73
2021/01/19 01:40:12;;;;;;;20.30;4.95;;;;;;;4.82;90.94;101285.03;4946625;28;20036;-73
2021/01/19 01:42:38;;;;;;;21.40;5.20;;;;;;;4.79;92.11;101270.25;4940899;28;20573;-74
2021/01/19 01:45:04;;;;;;;15.63;5.00;;;;;;;4.83;91.27;101261.13;4925091;29;20147;-73
2021/01/19 01:47:30;;;;;;;14.73;4.93;;;;;;;4.88;91.38;101271.41;4930580;29;20103;-73
2021/01/19 01:49:56;;;;;;;14.02;4.47;;;;;;;4.83;91.61;101245.25;4931083;29;20055;-73
2021/01/19 01:52:22;;;;;;;13.65;4.30;;;;;;;4.71;91.92;101222.31;4959776;28;20115;-72
2021/01/19 01:54:50;;;;;;;16.25;4.25;;;;;;;4.77;92.12;101229.81;4928190;29;20019;-74
2021/01/19 01:57:16;;;;;;;15.18;4.15;;;;;;;4.74;91.49;101212.38;4925579;29;20039;-74
2021/01/19 01:59:42;;;;;;;20.23;4.55;;;;;;;4.83;91.41;101224.09;4944126;28;20020;-72
2021/01/19 02:02:11;;;;;;;17.13;4.43;;;;;;;4.83;92.11;101229.38;4929661;29;20055;-73
2021/01/19 02:04:36;;;;;;;14.70;4.40;;;;;;;4.88;90.98;101218.50;4931234;29;20384;-72
2021/01/19 02:07:04;;;;;;;22.42;5.90;;;;;;;4.81;92.09;101217.22;4930685;29;20122;-74
2021/01/19 02:09:31;;;;;;;14.63;4.35;;;;;;;4.77;91.49;101208.66;4945046;28;20399;-72
2021/01/19 02:12:03;;;;;;;18.63;4.30;;;;;;;4.79;91.90;101203.25;4939981;29;20115;-72
2021/01/19 02:14:59;;;;;;;13.52;4.95;;;;;;;4.78;91.92;101194.50;4921221;29;20019;-73
2021/01/19 02:17:51;;;;;;;21.10;4.80;;;;;;;4.79;92.57;101179.47;4931567;29;20074;-75
2021/01/19 02:20:54;;;;;;;20.73;5.13;;;;;;;4.70;93.23;101181.81;4945331;28;20067;-75
2021/01/19 02:23:30;;;;;;;16.95;5.22;;;;;;;4.55;93.43;101153.78;4954129;28;20035;-74
2021/01/19 02:25:58;;;;;;;23.92;6.60;;;;;;;4.60;94.40;101162.25;4938617;28;20534;-73
2021/01/19 02:28:35;;;;;;;16.63;5.07;;;;;;;4.56;93.93;101150.19;4939257;29;20046;-73
2021/01/19 02:31:25;;;;;;;23.75;5.25;;;;;;;4.52;94.91;101148.72;4960989;28;20027;-73
2021/01/19 02:34:35;;;;;;;19.30;5.53;;;;;;;4.51;94.83;101139.94;4945476;28;20039;-73
2021/01/19 02:37:11;;;;;;;20.42;5.93;;;;;;;4.46;95.88;101131.47;4938932;29;20261;-73
2021/01/19 02:39:46;;;;;;;22.65;6.80;;;;;;;4.37;95.69;101109.19;4959238;28;20087;-73
2021/01/19 02:42:12;;;;;;;18.52;6.85;;;;;;;4.29;95.97;101096.50;4925915;29;20042;-74
2021/01/19 02:44:38;;;;;;;17.95;7.47;;;;;;;4.36;96.53;101110.13;4944327;28;20028;-74
2021/01/19 02:47:04;;;;;;;15.57;7.03;;;;;;;4.39;96.42;101117.03;4933633;29;20059;-73
2021/01/19 02:49:29;;;;;;;23.58;7.60;;;;;;;4.38;96.84;101104.75;4923365;29;20114;-73
2021/01/19 02:51:55;;;;;;;19.75;7.50;;;;;;;4.40;96.50;101110.78;4960750;28;20145;-73
2021/01/19 02:54:21;;;;;;;18.65;8.20;;;;;;;4.38;97.56;101087.09;4913830;29;20119;-73
2021/01/19 02:57:04;;;;;;;21.33;8.15;;;;;;;4.43;96.95;101090.28;4931371;29;20416;-76
2021/01/19 02:59:54;;;;;;;16.48;7.72;;;;;;;4.37;97.57;101071.34;4932199;29;20046;-73
2021/01/19 03:02:21;;;;;;;23.08;9.30;;;;;;;4.27;98.21;101066.72;4926274;29;20031;-75
2021/01/19 03:04:47;;;;;;;25.13;10.50;;;;;;;4.33;97.61;101065.44;4934512;29;20032;-74
2021/01/19 03:07:13;;;;;;;24.38;10.13;;;;;;;4.27;98.39;101053.50;4928458;29;20091;-73
2021/01/19 03:09:41;;;;;;;21.15;10.77;;;;;;;4.26;98.87;101043.91;4909333;29;20478;-73
2021/01/19 03:12:12;;;;;;;22.33;10.60;;;;;;;4.28;98.20;101035.84;4947230;28;20087;-72
2021/01/19 03:14:38;;;;;;;26.83;10.80;;;;;;;4.14;98.54;101008.59;4928711;29;20027;-73
2021/01/19 03:17:06;;;;;;;29.58;11.45;;;;;;;4.05;98.82;101001.31;4933973;29;20529;-73
2021/01/19 03:19:39;;;;;;;28.35;12.52;;;;;;;4.20;99.42;101017.88;4932429;28;20032;-74
2021/01/19 03:22:04;;;;;;;21.30;10.77;;;;;;;4.21;98.35;101005.50;4933523;29;20024;-76
2021/01/19 03:24:30;;;;;;;24.70;12.70;;;;;;;4.18;98.80;101005.75;4934138;29;20043;-73
2021/01/19 03:26:55;;;;;;;34.08;14.15;;;;;;;4.16;99.39;100999.72;4938242;29;20062;-73
2021/01/19 03:29:21;;;;;;;28.67;13.63;;;;;;;4.13;99.17;100985.78;4950592;28;20119;-73
2021/01/19 03:31:46;;;;;;;27.20;14.20;;;;;;;4.02;99.33;100974.25;4929438;29;20115;-77
2021/01/19 03:34:12;;;;;;;30.67;15.20;;;;;;;4.11;100.00;100987.69;4935176;29;20091;-76
2021/01/19 03:36:37;;;;;;;27.70;14.32;;;;;;;4.14;100.00;100989.25;4926272;29;20138;-73
2021/01/19 03:39:04;;;;;;;30.15;16.27;;;;;;;4.12;100.00;100978.81;4946396;28;20035;-73
2021/01/19 03:41:29;;;;;;;28.02;15.88;;;;;;;4.11;100.00;100971.00;4934158;29;20027;-74
2021/01/19 03:43:55;;;;;;;29.63;17.58;;;;;;;4.13;100.00;100959.38;4927811;29;20078;-73
2021/01/19 03:46:20;;;;;;;24.40;16.05;;;;;;;4.14;100.00;100958.41;4928982;29;20123;-75
2021/01/19 03:48:45;;;;;;;25.73;17.55;;;;;;;4.18;100.00;100950.28;4945782;29;20385;-73
2021/01/19 03:51:11;;;;;;;27.67;18.20;;;;;;;4.21;100.00;100952.69;4943118;28;20039;-73
2021/01/19 03:53:37;;;;;;;30.00;18.48;;;;;;;4.18;100.00;100947.63;4928788;29;20063;-74
2021/01/19 03:56:03;;;;;;;29.55;18.17;;;;;;;4.21;100.00;100942.13;4933976;29;20034;-77
2021/01/19 03:58:29;;;;;;;27.67;18.35;;;;;;;4.26;100.00;100929.44;4947857;28;20032;-73
2021/01/19 04:00:54;;;;;;;26.45;18.23;;;;;;;4.26;100.00;100943.50;4948552;28;20123;-73
2021/01/19 04:03:20;;;;;;;30.67;19.85;;;;;;;4.27;100.00;100917.91;4934726;29;20107;-73
2021/01/19 04:05:46;;;;;;;28.40;19.50;;;;;;;4.28;100.00;100916.97;4929369;29;20031;-76
2021/01/19 04:08:12;;;;;;;29.92;20.52;;;;;;;4.27;100.00;100923.19;4931411;29;20154;-75
2021/01/19 04:10:37;;;;;;;26.52;19.58;;;;;;;4.32;100.00;100912.28;4931459;29;20031;-74
2021/01/19 04:13:03;;;;;;;26.65;19.67;;;;;;;4.20;100.00;100877.88;4937865;28;20121;-76
2021/01/19 04:15:28;;;;;;;30.65;20.08;;;;;;;4.28;100.00;100890.53;4948315;28;20027;-73
2021/01/19 04:17:54;;;;;;;28.88;20.65;;;;;;;4.29;100.00;100887.78;4959509;28;20098;-73
2021/01/19 04:20:19;;;;;;;27.20;20.33;;;;;;;4.32;100.00;100881.44;4938493;29;20102;-73
2021/01/19 04:22:45;;;;;;;28.63;20.63;;;;;;;4.37;100.00;100873.19;4933339;29;20107;-76
2021/01/19 04:25:10;;;;;;;33.50;22.02;;;;;;;4.07;100.00;100819.81;4953190;28;20123;-73
2021/01/19 04:27:36;;;;;;;26.60;20.20;;;;;;;4.11;100.00;100802.78;4936683;29;20067;-74
2021/01/19 04:30:07;;;;;;;29.20;21.17;;;;;;;4.37;100.00;100859.97;4948997;28;20115;-73
2021/01/19 04:32:33;;;;;;;32.60;21.77;;;;;;;4.38;100.00;100848.44;4932514;29;20036;-73
2021/01/19 04:34:58;;;;;;;36.50;21.42;;;;;;;4.36;100.00;100832.69;4931382;29;20081;-74
2021/01/19 04:37:24;;;;;;;36.05;23.27;;;;;;;4.21;100.00;100800.31;4944999;29;20126;-74
2021/01/19 04:39:49;;;;;;;37.80;22.25;;;;;;;4.41;100.00;100833.22;4917586;28;20103;-73
2021/01/19 04:42:17;;;;;;;32.85;21.40;;;;;;;4.43;100.00;100815.44;4930844;29;20122;-72
2021/01/19 04:44:42;;;;;;;31.90;21.48;;;;;;;4.42;100.00;100810.25;4934890;29;20027;-73
2021/01/19 04:47:08;;;;;;;30.58;22.27;;;;;;;4.28;100.00;100798.91;4932208;29;20142;-72
2021/01/19 04:49:33;;;;;;;28.70;23.33;;;;;;;4.31;100.00;100787.28;4946091;28;20146;-72
2021/01/19 04:51:59;;;;;;;33.97;23.17;;;;;;;4.26;100.00;100784.13;4937657;28;20582;-72
2021/01/19 04:54:25;;;;;;;34.03;24.08;;;;;;;4.40;100.00;100802.44;4908006;29;20024;-72
2021/01/19 04:56:53;;;;;;;28.88;22.70;;;;;;;4.41;100.00;100790.09;4919931;29;20614;-75
2021/01/19 04:59:22;;;;;;;29.15;23.23;;;;;;;4.24;100.00;100780.75;4973950;28;20035;-73
2021/01/19 05:01:50;;;;;;;30.20;23.48;;;;;;;4.45;100.00;100788.88;4936350;28;20517;-73
2021/01/19 05:04:17;;;;;;;;;;;;;;;4.42;100.00;100807.59;4958091;28;20031;-73
2021/01/19 05:06:42;;;;;;;33.15;23.50;;;;;;;4.43;100.00;100790.78;4933183;28;19919;-73
2021/01/19 05:09:09;;;;;;;26.63;22.70;;;;;;;4.49;100.00;100777.16;4934201;29;20047;-73
2021/01/19 05:11:43;;;;;;;34.20;22.73;;;;;;;4.45;100.00;100762.47;4932664;28;20039;-73
2021/01/19 05:14:09;;;;;;;37.13;24.38;;;;;;;4.44;100.00;100763.41;4915720;29;20111;-73
2021/01/19 05:16:35;;;;;;;32.72;23.55;;;;;;;4.49;100.00;100742.78;4943706;29;20117;-73
2021/01/19 05:19:02;;;;;;;27.20;21.67;;;;;;;4.52;100.00;100732.00;4940475;29;20089;-73
2021/01/19 05:21:27;;;;;;;33.95;23.00;;;;;;;4.53;100.00;100728.38;4926362;29;20405;-73
2021/01/19 05:23:54;;;;;;;27.95;20.90;;;;;;;4.57;100.00;100721.06;4938765;29;20111;-73
2021/01/19 05:26:20;;;;;;;27.10;20.70;;;;;;;4.55;100.00;100710.59;4944044;29;20486;-72
2021/01/19 05:28:50;;;;;;;28.30;20.13;;;;;;;4.58;100.00;100694.50;4924987;29;20103;-73
2021/01/19 05:31:16;;;;;;;31.52;20.83;;;;;;;4.62;100.00;100689.00;4945728;28;20042;-73
2021/01/19 05:33:42;;;;;;;28.65;21.85;;;;;;;4.63;100.00;100686.22;4931662;29;20062;-73
2021/01/19 05:36:08;;;;;;;27.20;20.17;;;;;;;4.65;100.00;100670.25;4932296;29;20361;-73
2021/01/19 05:38:48;;;;;;;27.80;20.67;;;;;;;4.68;100.00;100678.78;4941994;28;20039;-73
2021/01/19 05:41:27;;;;;;;26.88;20.88;;;;;;;4.72;100.00;100652.94;4960577;28;20031;-72
2021/01/19 05:43:53;;;;;;;;;;;;;;;4.69;100.00;100653.19;4944481;29;20114;-74
2021/01/19 05:46:44;;;;;;;31.17;21.00;;;;;;;4.73;100.00;100638.78;4942443;28;20353;-73
2021/01/19 05:49:14;;;;;;;28.73;20.95;;;;;;;4.71;100.00;100638.03;4946246;29;20068;-73
2021/01/19 05:51:44;;;;;;;30.95;21.23;;;;;;;4.65;100.00;100620.84;4930399;29;20035;-73
2021/01/19 05:54:10;;;;;;;28.60;20.17;;;;;;;4.58;100.00;100580.03;4932001;29;20027;-73
2021/01/19 05:56:36;;;;;;;27.35;20.50;;;;;;;4.80;100.00;100602.13;4939162;29;20414;-73
2021/01/19 05:59:01;;;;;;;28.75;18.55;;;;;;;4.78;100.00;100581.09;4919734;29;20102;-73
2021/01/19 06:01:31;;;;;;;26.65;18.60;;;;;;;4.86;100.00;100583.97;4931072;29;20111;-74
2021/01/19 06:04:01;;;;;;;24.58;17.27;;;;;;;4.63;100.00;100526.81;4930990;29;20102;-73
2021/01/19 06:06:27;;;;;;;25.10;18.77;;;;;;;4.87;100.00;100561.84;4939961;28;20488;-73
2021/01/19 06:09:03;;;;;;;28.35;18.35;;;;;;;4.87;100.00;100561.84;4913953;29;20354;-72
2021/01/19 06:11:29;;;;;;;23.83;16.42;;;;;;;4.92;100.00;100552.72;4927031;29;20159;-76
2021/01/19 06:13:54;;;;;;;22.13;16.30;;;;;;;4.76;100.00;100514.28;4928912;29;20027;-75
2021/01/19 06:16:22;;;;;;;17.13;13.35;;;;;;;4.93;100.00;100549.09;4961518;28;20023;-74
2021/01/19 06:18:47;;;;;;;27.15;14.82;;;;;;;5.01;100.00;100525.50;4946341;28;20063;-73
2021/01/19 06:21:34;;;;;;;19.35;13.02;;;;;;;4.86;100.00;100509.09;4928123;29;20110;-73
2021/01/19 06:24:00;;;;;;;23.88;14.10;;;;;;;5.01;100.00;100542.25;4931636;29;20110;-73
2021/01/19 06:26:25;;;;;;;17.30;12.10;;;;;;;5.08;100.00;100520.56;4935649;28;20094;-73
2021/01/19 06:28:51;;;;;;;25.10;12.88;;;;;;;5.10;100.00;100511.53;4934331;29;20047;-74
2021/01/19 06:31:20;;;;;;;13.63;11.55;;;;;;;5.10;100.00;100513.34;4930272;29;20110;-74
2021/01/19 06:33:47;;;;;;;20.92;13.13;;;;;;;5.09;100.00;100504.56;4930626;29;20546;-73
2021/01/19 06:36:13;;;;;;;17.58;12.05;;;;;;;5.11;100.00;100502.63;4943150;29;20059;-74
2021/01/19 06:38:48;;;;;;;19.75;11.88;;;;;;;5.13;100.00;100495.41;4935823;29;20039;-75
2021/01/19 06:41:18;;;;;;;19.40;11.02;;;;;;;5.11;100.00;100472.72;4926446;29;20313;-76
2021/01/19 06:43:50;;;;;;;14.75;9.85;;;;;;;5.21;100.00;100492.13;4926262;29;20223;-74
2021/01/19 06:46:17;;;;;;;16.85;11.40;;;;;;;5.20;100.00;100490.44;4921001;29;20047;-76
2021/01/19 06:48:43;;;;;;;19.67;11.57;;;;;;;5.18;100.00;100465.94;4923706;29;20027;-76
2021/01/19 06:51:12;;;;;;;15.10;11.02;;;;;;;5.22;100.00;100465.53;4924891;29;20051;-73
2021/01/19 06:53:45;;;;;;;15.65;10.60;;;;;;;5.26;100.00;100457.34;4920979;29;20611;-76
2021/01/19 06:56:14;;;;;;;15.88;10.43;;;;;;;5.07;100.00;100416.59;4922203;29;20051;-76
2021/01/19 06:58:45;;;;;;;18.05;11.02;;;;;;;5.27;100.00;100446.66;4935470;28;20757;-75
2021/01/19 07:01:12;;;;;;;14.27;9.65;;;;;;;5.27;100.00;100444.03;4915844;29;20102;-74
2021/01/19 07:03:38;;;;;;;15.90;10.10;;;;;;;5.21;100.00;100428.66;4922688;29;20396;-74
2021/01/19 07:06:05;;;;;;;18.30;10.15;;;;;;;5.26;100.00;100431.75;4924229;29;20082;-77
2021/01/19 07:09:01;;;;;;;14.93;9.55;;;;;;;5.28;100.00;100415.75;4922068;29;20450;-77
2021/01/19 07:11:36;;;;;;;13.05;9.38;;;;;;;5.31;100.00;100418.97;4917113;29;20303;-78
2021/01/19 07:14:09;;;;;;;14.88;8.18;;;;;;;5.24;100.00;100394.00;4924779;29;20061;-77
2021/01/19 07:16:34;;;;;;;17.88;9.27;;;;;;;5.34;100.00;100402.84;4941187;28;20042;-76
2021/01/19 07:19:16;;;;;;;14.30;9.98;;;;;;;5.35;100.00;100401.03;4936056;28;20031;-78
2021/01/19 07:22:09;;;;;;;14.07;9.10;;;;;;;5.37;100.00;100401.72;4934449;28;20027;-76
2021/01/19 07:24:42;;;;;;;16.73;9.02;;;;;;;5.38;100.00;100400.75;4938398;28;20096;-78
2021/01/19 07:27:09;;;;;;;17.70;9.13;;;;;;;5.40;100.00;100392.72;4957415;28;20538;-76
2021/01/19 07:29:36;;;;;;;15.57;8.60;;;;;;;5.41;100.00;100392.56;4917955;29;20225;-79
2021/01/19 07:32:08;;;;;;;14.48;8.82;;;;;;;5.25;100.00;100363.94;4922488;29;20038;-75
2021/01/19 07:34:36;;;;;;;15.90;9.23;;;;;;;5.45;100.00;100380.75;4938836;28;20122;-74
2021/01/19 07:37:01;;;;;;;19.15;10.40;;;;;;;5.46;100.00;100379.78;4925738;29;20039;-78
2021/01/19 07:39:30;;;;;;;14.52;9.65;;;;;;;5.31;100.00;100346.69;4925553;29;20498;-77
2021/01/19 07:42:11;;;;;;;17.90;10.25;;;;;;;5.50;100.00;100369.78;4939582;28;20082;-75
2021/01/19 07:44:37;;;;;;;13.23;10.70;;;;;;;5.54;100.00;100362.41;4926286;29;20030;-75
2021/01/19 07:47:10;;;;;;;14.82;10.40;;;;;;;5.58;100.00;100366.47;4928635;29;20064;-83
2021/01/19 07:49:35;;;;;;;18.55;12.05;;;;;;;5.60;100.00;100375.13;4936721;29;20035;-82
2021/01/19 07:52:11;;;;;;;20.55;11.52;;;;;;;5.60;100.00;100378.59;4935010;28;20594;-84
2021/01/19 07:54:37;;;;;;;14.88;10.73;;;;;;;5.46;100.00;100349.81;4932236;28;20031;-85
2021/01/19 07:57:10;;;;;;;15.95;10.55;;;;;;;5.54;100.00;100354.47;4966432;28;20400;-76
2021/01/19 07:59:35;;;;;;;21.95;10.98;;;;;;;5.66;100.00;100374.56;4945016;29;20038;-76
2021/01/19 08:02:01;;;;;;;18.73;10.15;;;;;;;5.70;100.00;100361.94;4946336;29;20046;-80
2021/01/19 08:04:31;;;;;;;19.20;10.18;;;;;;;5.72;100.00;100382.00;4947413;28;20114;-82
2021/01/19 08:06:56;;;;;;;17.67;10.27;;;;;;;5.70;100.00;100370.69;4931687;28;20139;-79
2021/01/19 08:09:22;;;;;;;17.23;9.68;;;;;;;5.77;100.00;100384.25;4947881;28;20027;-80
2021/01/19 08:12:05;;;;;;;13.25;9.73;;;;;;;5.78;100.00;100367.38;4960395;28;20099;-77
2021/01/19 08:14:38;;;;;;;13.38;9.35;;;;;;;5.69;100.00;100347.00;4940911;28;20020;-76
2021/01/19 08:17:04;;;;;;;14.07;9.68;;;;;;;5.87;100.00;100366.56;4934038;28;20066;-73
2021/01/19 08:19:34;;;;;;;11.88;8.50;;;;;;;5.89;100.00;100371.75;4901553;29;20070;-74
2021/01/19 08:22:00;;;;;;;11.90;8.30;;;;;;;5.93;100.00;100363.41;4923630;29;20055;-75
2021/01/19 08:24:25;;;;;;;15.13;8.77;;;;;;;5.89;100.00;100350.56;4914338;29;20095;-74
2021/01/19 08:26:51;;;;;;;14.85;8.32;;;;;;;5.78;100.00;100322.38;4923950;28;20114;-80
2021/01/19 08:29:20;;;;;;;11.23;7.88;;;;;;;5.88;100.00;100339.13;4939233;28;20316;-73
2021/01/19 08:31:59;;;;;;;13.73;9.07;;;;;;;6.08;100.00;100368.34;4963094;28;20031;-79
2021/01/19 08:34:26;;;;;;;12.80;8.48;;;;;;;6.08;100.00;100361.22;4962915;28;20063;-73
2021/01/19 08:36:51;;;;;;;14.90;8.75;;;;;;;5.89;100.00;100324.91;4937749;29;20165;-79
2021/01/19 08:39:17;;;;;;;11.50;8.45;;;;;;;6.18;100.00;100355.97;4964191;28;20065;-73
2021/01/19 08:41:47;;;;;;;16.27;9.15;;;;;;;6.04;100.00;100341.28;4930321;29;20478;-74
2021/01/19 08:44:13;;;;;;;15.05;8.88;;;;;;;6.21;100.00;100362.78;4941738;28;20457;-78
2021/01/19 08:46:39;;;;;;;13.57;9.00;;;;;;;6.23;100.00;100366.16;4929835;29;20032;-74
2021/01/19 08:49:05;;;;;;;11.15;9.32;;;;;;;6.27;100.00;100359.59;4934552;29;20039;-74
2021/01/19 08:51:31;;;;;;;13.90;9.90;;;;;;;6.32;100.00;100356.53;4974493;28;20567;-73
2021/01/19 08:53:56;;;;;;;13.38;9.13;;;;;;;6.33;100.00;100364.34;4934598;28;20170;-74
2021/01/19 08:56:24;;;;;;;12.90;9.32;;;;;;;6.38;100.00;100353.34;4931265;29;20058;-74
2021/01/19 08:58:49;;;;;;;13.05;9.88;;;;;;;6.41;100.00;100350.41;4928120;29;20052;-74
2021/01/19 09:01:15;;;;;;;16.38;10.77;;;;;;;6.22;100.00;100325.56;4945837;28;20036;-74
2021/01/19 09:03:41;;;;;;;13.90;10.20;;;;;;;6.41;100.00;100356.56;4961407;28;20032;-74
2021/01/19 09:06:12;;;;;;;13.95;10.25;;;;;;;6.42;100.00;100368.84;4930164;29;20388;-74
2021/01/19 09:08:40;;;;;;;9.88;8.43;;;;;;;6.51;100.00;100364.53;4908336;29;20036;-74
2021/01/19 09:11:06;;;;;;;;;;;;;;;6.52;100.00;100368.81;4935213;29;20036;-74
2021/01/19 09:13:32;;;;;;;11.18;8.43;;;;;;;6.55;100.00;100365.09;4949509;28;19915;-74
2021/01/19 09:15:58;;;;;;;11.38;9.15;;;;;;;6.48;100.00;100346.25;4928946;28;20043;-75
2021/01/19 09:18:24;;;;;;;10.35;7.82;;;;;;;6.64;100.00;100353.63;4948286;28;20073;-74
2021/01/19 09:21:08;;;;;;;11.55;7.95;;;;;;;6.44;100.00;100331.59;4946947;29;20114;-74
2021/01/19 09:23:34;;;;;;;11.93;7.85;;;;;;;6.76;100.00;100370.25;4913492;29;20031;-75
2021/01/19 09:26:07;;;;;;;11.38;7.88;;;;;;;6.71;100.00;100333.56;4906990;29;20040;-75
2021/01/19 09:28:34;;;;;;;13.00;7.93;;;;;;;6.94;100.00;100362.41;4950960;28;20059;-78
2021/01/19 09:31:23;;;;;;;11.38;7.88;;;;;;;7.02;100.00;100359.88;4925334;29;20152;-75
2021/01/19 09:33:53;;;;;;;13.48;8.15;;;;;;;7.10;100.00;100367.13;4960347;28;20046;-74
2021/01/19 09:36:19;;;;;;;13.20;7.43;;;;;;;7.12;100.00;100353.75;4928519;29;20056;-74
2021/01/19 09:38:46;;;;;;;11.45;7.25;;;;;;;7.03;100.00;100331.56;4921880;29;20034;-73
2021/01/19 09:41:17;;;;;;;13.80;7.07;;;;;;;7.12;100.00;100338.66;4928471;29;20700;-73
2021/01/19 09:43:50;;;;;;;15.27;7.55;;;;;;;7.40;100.00;100357.31;4947366;28;20494;-74
2021/01/19 09:46:15;;;;;;;22.52;7.38;;;;;;;7.34;100.00;100340.13;4933239;28;20542;-74
2021/01/19 09:48:41;;;;;;;18.85;7.22;;;;;;;7.30;100.00;100314.03;4946565;28;20114;-78
2021/01/19 09:51:06;;;;;;;28.13;9.57;;;;;;;7.64;100.00;100358.59;4919972;29;20114;-77
2021/01/19 09:53:33;;;;;;;23.60;8.18;;;;;;;7.76;100.00;100375.22;4958951;28;20079;-74
2021/01/19 09:56:00;;;;;;;26.30;8.02;;;;;;;7.85;100.00;100371.66;4931781;29;20027;-75
2021/01/19 09:58:26;;;;;;;28.73;9.00;;;;;;;7.96;100.00;100368.81;4944220;28;20031;-79
2021/01/19 10:00:51;;;;;;;26.42;8.43;;;;;;;7.89;100.00;100345.63;4930736;29;20078;-78
2021/01/19 10:03:19;;;;;;;22.02;7.30;;;;;;;8.15;100.00;100380.31;4962355;28;20059;-74
2021/01/19 10:05:45;;;;;;;28.52;7.75;;;;;;;8.24;100.00;100367.97;4937208;29;20110;-75
2021/01/19 10:08:11;;;;;;;28.10;6.18;;;;;;;7.99;100.00;100340.28;4950961;28;25186;-74
2021/01/19 10:10:37;;;;;;;26.15;5.90;;;;;;;8.37;100.00;100386.19;4932244;29;20473;-75
2021/01/19 10:13:03;;;;;;;27.35;6.20;;;;;;;8.40;100.00;100380.59;4936156;29;20101;-74
2021/01/19 10:15:29;;;;;;;24.10;6.07;;;;;;;8.48;100.00;100386.03;4936357;29;20116;-74
2021/01/19 10:17:58;;;;;;;33.55;6.35;;;;;;;8.48;100.00;100372.75;4943065;28;20039;-79
2021/01/19 10:20:38;;;;;;;27.05;6.15;;;;;;;8.51;100.00;100369.75;4930989;28;20027;-75
2021/01/19 10:23:04;;;;;;;33.08;5.63;;;;;;;8.39;100.00;100361.16;4928983;29;20023;-75
2021/01/19 10:25:34;;;;;;;30.73;6.18;;;;;;;8.58;100.00;100377.97;4897299;29;20098;-74
2021/01/19 10:28:01;;;;;;;26.08;5.78;;;;;;;8.59;100.00;100390.28;4929702;28;20566;-74
2021/01/19 10:30:28;;;;;;;27.08;5.32;;;;;;;8.53;100.00;100364.31;4948227;28;20055;-73
2021/01/19 10:32:55;;;;;;;22.52;5.10;;;;;;;8.68;100.00;100386.72;4953949;28;20083;-77
2021/01/19 10:35:32;;;;;;;24.05;5.22;;;;;;;8.72;100.00;100398.72;4930254;29;20062;-80
2021/01/19 10:38:08;;;;;;;22.33;4.88;;;;;;;8.71;100.00;100378.44;4941971;28;20036;-73
2021/01/19 10:40:34;;;;;;;17.17;4.40;;;;;;;8.68;100.00;100388.53;4929422;29;20027;-73
2021/01/19 10:43:00;;;;;;;21.90;4.82;;;;;;;8.73;100.00;100391.59;4930662;29;20642;-73
2021/01/19 10:45:27;;;;;;;22.13;4.88;;;;;;;8.52;100.00;100363.47;4941075;28;20226;-74
2021/01/19 10:47:53;;;;;;;20.10;4.50;;;;;;;8.57;100.00;100376.28;4925342;29;20042;-73
2021/01/19 10:50:21;;;;;;;23.50;4.75;;;;;;;8.71;100.00;100398.88;4925141;29;20154;-75
2021/01/19 10:52:56;;;;;;;17.70;3.83;;;;;;;8.61;100.00;100392.81;4927659;29;20024;-76
2021/01/19 10:55:22;;;;;;;20.08;4.18;;;;;;;8.60;100.00;100380.50;4928741;29;20039;-78
2021/01/19 10:57:47;;;;;;;25.60;4.63;;;;;;;8.65;100.00;100381.72;4960229;28;20039;-74
2021/01/19 11:00:14;;;;;;;21.17;4.43;;;;;;;8.74;100.00;100401.25;4961889;28;20110;-73
2021/01/19 11:02:39;;;;;;;20.30;4.20;;;;;;;8.72;100.00;100404.03;4916412;29;20035;-74
2021/01/19 11:05:05;;;;;;;19.60;5.05;;;;;;;8.73;100.00;100396.91;4926874;29;20086;-74
2021/01/19 11:07:31;;;;;;;19.30;4.38;;;;;;;8.75;100.00;100407.38;4959334;28;20043;-73
2021/01/19 11:09:56;;;;;;;25.35;5.47;;;;;;;8.77;100.00;100395.59;4926696;29;20114;-75
2021/01/19 11:12:22;;;;;;;28.67;5.22;;;;;;;8.77;100.00;100411.56;4918437;29;20035;-76
2021/01/19 11:14:47;;;;;;;25.77;6.05;;;;;;;8.85;100.00;100408.16;4938737;28;20071;-76
2021/01/19 11:17:13;;;;;;;25.73;4.88;;;;;;;8.80;100.00;100403.28;4929493;29;20555;-76
2021/01/19 11:19:39;;;;;;;25.40;4.95;;;;;;;8.85;100.00;100402.81;4925945;29;20111;-77
2021/01/19 11:22:07;;;;;;;19.33;4.93;;;;;;;8.84;100.00;100417.97;4925332;29;20067;-77